Time;durP1;ratioP1;P1;durP2;ratioP2;P2;SDS_P1;SDS_P2;PMS_P1;PMS_P2;Temp;Humidity;BMP_temperature;BMP_pressure;BME280_temperature;BME280_humidity;BME280_pressure;Samples;Min_cycle;Max_cycle;Signal;HPM_P1;HPM_P2
2021/09/05 00:00:15;;;;;;;11.43;9.57;;;;;;;16.69;82.38;155650.16;5072763;28;20471;-74
2021/09/05 00:03:02;;;;;;;11.33;9.40;;;;;;;16.72;82.90;155656.66;5056665;28;20487;-75
2021/09/05 00:05:47;;;;;;;10.40;8.60;;;;;;;16.71;82.55;155654.03;5072518;28;20603;-75
2021/09/05 00:08:33;;;;;;;11.30;8.87;;;;;;;16.68;81.88;155647.53;5072366;28;20461;-75
2021/09/05 00:11:18;;;;;;;10.47;9.37;;;;;;;16.68;82.33;155646.28;5071124;28;20813;-75
2021/09/05 00:13:54;;;;;;;9.50;8.57;;;;;;;16.63;82.30;155634.53;5064926;28;20800;-75
2021/09/05 00:16:39;;;;;;;10.63;9.37;;;;;;;16.56;83.24;155616.34;5072436;28;20496;-75
2021/09/05 00:19:26;;;;;;;10.30;9.30;;;;;;;16.49;82.89;155598.09;5071919;28;20783;-75
2021/09/05 00:22:11;;;;;;;10.83;8.90;;;;;;;16.44;83.08;155586.38;5072235;28;20453;-75
2021/09/05 00:24:56;;;;;;;12.53;9.90;;;;;;;16.41;84.13;155578.56;5056157;28;20476;-74
2021/09/05 00:27:42;;;;;;;10.30;9.40;;;;;;;16.36;84.45;155565.56;5072309;28;20438;-75
2021/09/05 00:30:27;;;;;;;11.00;10.00;;;;;;;16.33;83.93;155556.47;5072367;28;20457;-75
2021/09/05 00:33:12;;;;;;;10.63;9.60;;;;;;;16.28;84.31;155543.47;5058968;28;20434;-75
2021/09/05 00:35:59;;;;;;;15.40;10.03;;;;;;;16.21;85.07;155525.25;5071995;28;20452;-75
2021/09/05 00:38:44;;;;;;;11.93;9.60;;;;;;;16.14;86.04;155508.38;5072181;28;20560;-75
2021/09/05 00:41:30;;;;;;;10.20;9.20;;;;;;;16.13;85.71;155504.44;5072068;28;20441;-75
2021/09/05 00:44:15;;;;;;;9.10;8.20;;;;;;;16.12;86.02;155501.88;5070989;28;20786;-75
2021/09/05 00:47:01;;;;;;;10.77;9.67;;;;;;;16.08;85.91;155492.75;5056941;28;20437;-75
2021/09/05 00:49:46;;;;;;;10.27;9.27;;;;;;;16.05;86.14;155483.63;5071591;28;20995;-75
2021/09/05 00:52:33;;;;;;;11.77;9.43;;;;;;;16.01;87.46;155473.25;5068261;28;21063;-74
2021/09/05 00:55:19;;;;;;;11.90;10.13;;;;;;;15.96;87.63;155460.25;5071258;28;20466;-75
2021/09/05 00:58:07;;;;;;;10.67;9.67;;;;;;;15.91;87.79;155448.56;5071014;28;20442;-74
2021/09/05 01:00:53;;;;;;;13.53;9.83;;;;;;;15.86;87.88;155435.50;5069560;28;20978;-75
2021/09/05 01:03:39;;;;;;;11.50;10.30;;;;;;;15.82;88.30;155425.13;5072067;28;20460;-75
2021/09/05 01:06:25;;;;;;;10.90;9.80;;;;;;;15.78;88.65;155416.03;5071965;28;20804;-75
2021/09/05 01:09:13;;;;;;;10.87;9.87;;;;;;;15.74;88.56;155405.66;5070756;28;20473;-74
2021/09/05 01:12:00;;;;;;;10.30;9.20;;;;;;;15.70;89.05;155393.97;5063895;28;20425;-75
2021/09/05 01:14:45;;;;;;;11.07;9.87;;;;;;;15.68;89.05;155388.72;5070345;28;20607;-75
2021/09/05 01:17:36;;;;;;;11.40;9.03;;;;;;;15.64;89.35;155379.66;5071653;28;20451;-74
2021/09/05 01:20:27;;;;;;;11.20;9.37;;;;;;;15.60;88.79;155369.22;5071577;28;20460;-75
2021/09/05 01:23:36;;;;;;;11.33;9.20;;;;;;;15.57;89.46;155361.44;5061390;28;20472;-75
2021/09/05 01:26:50;;;;;;;10.87;9.77;;;;;;;15.59;89.68;155365.34;5059930;28;20474;-74
2021/09/05 01:30:12;;;;;;;10.67;9.60;;;;;;;15.52;89.92;155347.13;5067013;28;20479;-74
2021/09/05 01:33:17;;;;;;;10.00;8.90;;;;;;;15.52;89.41;155347.13;5060805;28;20490;-75
2021/09/05 01:36:21;;;;;;;10.97;9.13;;;;;;;15.46;90.12;155332.81;5075059;28;20828;-75
2021/09/05 01:39:44;;;;;;;10.40;9.30;;;;;;;15.45;89.50;155328.91;5032266;28;20871;-75
2021/09/05 01:43:08;;;;;;;11.03;9.67;;;;;;;15.40;89.87;155317.22;5018405;28;20958;-75
2021/09/05 01:46:14;;;;;;;11.20;10.10;;;;;;;15.38;91.24;155311.97;5074716;28;20460;-75
2021/09/05 01:49:20;;;;;;;11.13;10.03;;;;;;;15.33;91.22;155298.97;5062224;28;20480;-75
2021/09/05 01:52:37;;;;;;;11.03;9.93;;;;;;;15.35;91.02;155304.22;5064188;28;20938;-75
2021/09/05 01:56:01;;;;;;;10.23;9.23;;;;;;;15.31;92.02;155292.50;5063578;28;20876;-75
2021/09/05 01:59:25;;;;;;;10.73;9.60;;;;;;;15.25;92.08;155278.19;4982211;28;20523;-75
2021/09/05 02:02:31;;;;;;;12.67;9.90;;;;;;;15.22;92.22;155271.69;4983299;28;20474;-75
2021/09/05 02:05:44;;;;;;;10.60;9.40;;;;;;;15.20;91.89;155265.19;5064680;28;20468;-74
2021/09/05 02:08:48;;;;;;;11.67;10.43;;;;;;;15.15;92.10;155252.22;5074150;28;20502;-74
2021/09/05 02:12:13;;;;;;;12.93;9.73;;;;;;;15.12;91.67;155244.41;5051262;28;20501;-75
2021/09/05 02:15:21;;;;;;;16.83;10.53;;;;;;;15.12;92.31;155244.41;5051566;28;20470;-75
2021/09/05 02:18:41;;;;;;;17.33;11.60;;;;;;;15.10;92.51;155239.22;5042017;28;20444;-75
2021/09/05 02:21:45;;;;;;;13.23;11.63;;;;;;;15.07;92.21;155231.41;5068027;28;20443;-75
2021/09/05 02:24:49;;;;;;;12.33;10.30;;;;;;;15.02;92.79;155219.75;5073355;28;20496;-75
2021/09/05 02:27:53;;;;;;;10.90;9.80;;;;;;;15.03;92.92;155221.03;5067441;28;20459;-75
2021/09/05 02:31:14;;;;;;;11.27;10.07;;;;;;;14.98;93.79;155209.38;5060695;28;20509;-75
2021/09/05 02:34:27;;;;;;;11.07;10.00;;;;;;;14.92;93.41;155192.47;5074036;28;20808;-75
2021/09/05 02:37:38;;;;;;;11.50;10.30;;;;;;;14.89;93.83;155184.66;5062945;28;20446;-75
2021/09/05 02:40:38;;;;;;;12.70;10.70;;;;;;;14.86;93.56;155176.84;5068245;28;20467;-75
2021/09/05 02:43:46;;;;;;;11.40;9.57;;;;;;;14.83;93.46;155169.06;5064844;28;20980;-75
2021/09/05 02:46:49;;;;;;;12.30;11.10;;;;;;;14.84;93.79;155172.97;5072899;28;20436;-75
2021/09/05 02:49:54;;;;;;;12.23;10.93;;;;;;;14.83;94.25;155170.34;5073666;28;20527;-75
2021/09/05 02:52:59;;;;;;;13.60;11.60;;;;;;;14.86;93.96;155176.84;5073551;28;21155;-75
2021/09/05 02:56:11;;;;;;;11.83;10.60;;;;;;;14.88;93.88;155182.09;5072723;28;20459;-75
2021/09/05 02:59:35;;;;;;;14.83;11.73;;;;;;;14.88;94.05;155183.34;5069292;28;20488;-74
2021/09/05 03:02:40;;;;;;;13.30;11.80;;;;;;;14.90;94.15;155187.28;5072752;28;20471;-75
2021/09/05 03:05:53;;;;;;;17.53;12.10;;;;;;;14.89;93.94;155185.97;5072250;28;20569;-75
2021/09/05 03:09:01;;;;;;;13.90;11.63;;;;;;;14.86;94.05;155176.84;5056192;28;20799;-75
2021/09/05 03:12:12;;;;;;;11.87;10.50;;;;;;;14.83;94.06;155169.06;5073385;28;20439;-75
2021/09/05 03:15:10;;;;;;;13.90;11.07;;;;;;;14.82;94.21;155166.47;5071919;28;20992;-75
2021/09/05 03:18:18;;;;;;;13.10;11.60;;;;;;;14.79;94.10;155158.69;5071142;28;20461;-75
2021/09/05 03:21:41;;;;;;;12.97;10.60;;;;;;;14.79;94.02;155160.00;5026470;28;20567;-75
2021/09/05 03:24:49;;;;;;;13.80;12.13;;;;;;;14.77;94.08;155154.81;5013269;28;20672;-75
2021/09/05 03:27:54;;;;;;;14.80;12.37;;;;;;;14.74;94.49;155145.69;5016352;28;20928;-75
2021/09/05 03:31:02;;;;;;;12.47;11.20;;;;;;;14.68;94.63;155130.09;5025098;28;20453;-74
2021/09/05 03:33:50;;;;;;;15.00;12.90;;;;;;;14.63;94.85;155119.72;5021492;28;20799;-75
2021/09/05 03:36:57;;;;;;;13.50;11.83;;;;;;;14.61;94.85;155113.25;5012259;28;20940;-75
2021/09/05 03:39:57;;;;;;;13.83;11.10;;;;;;;14.56;94.53;155100.25;5009006;28;20827;-75
2021/09/05 03:43:05;;;;;;;13.63;11.63;;;;;;;14.53;95.06;155093.72;5010437;28;20448;-75
2021/09/05 03:46:21;;;;;;;13.17;9.90;;;;;;;14.51;94.96;155088.53;4997543;28;20949;-75
2021/09/05 03:49:31;;;;;;;14.13;12.10;;;;;;;14.48;94.21;155080.72;5015770;28;20821;-75
2021/09/05 03:52:19;;;;;;;11.20;10.03;;;;;;;14.46;93.97;155075.53;5016080;28;20460;-75
2021/09/05 03:55:05;;;;;;;12.50;10.13;;;;;;;14.43;93.97;155067.75;5024857;28;20511;-74
2021/09/05 03:57:51;;;;;;;13.73;11.80;;;;;;;14.41;93.93;155061.25;5023502;28;20587;-75
2021/09/05 04:00:37;;;;;;;12.13;10.83;;;;;;;14.39;93.95;155056.06;5070125;28;20544;-75
2021/09/05 04:03:24;;;;;;;10.90;9.67;;;;;;;14.40;94.43;155059.94;5071622;28;20445;-75
2021/09/05 04:06:11;;;;;;;11.90;10.17;;;;;;;14.38;94.28;155054.75;5071652;28;20474;-75
2021/09/05 04:09:08;;;;;;;12.60;10.77;;;;;;;14.36;94.11;155049.59;5071085;28;20478;-74
2021/09/05 04:11:53;;;;;;;12.40;11.10;;;;;;;14.34;94.46;155043.09;5072761;28;20450;-75
2021/09/05 04:14:39;;;;;;;11.37;10.17;;;;;;;14.31;94.61;155036.59;5072206;28;20477;-75
2021/09/05 04:17:24;;;;;;;14.30;11.87;;;;;;;14.31;95.33;155036.59;5060134;28;20442;-75
2021/09/05 04:20:11;;;;;;;14.03;12.57;;;;;;;14.28;95.16;155028.75;5072369;28;20446;-75
2021/09/05 04:22:56;;;;;;;13.80;11.07;;;;;;;14.25;94.97;155020.94;5067976;28;20442;-75
2021/09/05 04:25:43;;;;;;;13.50;12.10;;;;;;;14.22;95.07;155013.16;5072001;28;21108;-75
2021/09/05 04:28:28;;;;;;;14.90;11.60;;;;;;;14.24;95.84;155017.09;5072336;28;20478;-75
2021/09/05 04:31:13;;;;;;;14.50;11.67;;;;;;;14.22;95.53;155011.84;5062203;28;20444;-75
2021/09/05 04:33:59;;;;;;;12.80;11.50;;;;;;;14.18;95.61;155001.50;5072362;28;21215;-75
2021/09/05 04:36:44;;;;;;;14.13;11.50;;;;;;;14.12;95.38;154985.88;5070905;28;20430;-75
2021/09/05 04:39:30;;;;;;;13.20;11.50;;;;;;;14.07;95.96;154974.22;5071977;28;20805;-75
2021/09/05 04:42:17;;;;;;;14.00;11.93;;;;;;;14.04;96.16;154966.41;5072201;28;20800;-75
2021/09/05 04:45:02;;;;;;;12.97;11.40;;;;;;;13.99;96.29;154954.75;5057433;28;20445;-75
2021/09/05 04:47:48;;;;;;;13.87;12.00;;;;;;;13.95;96.88;154943.09;5072225;28;20441;-74
2021/09/05 04:50:33;;;;;;;15.03;11.07;;;;;;;13.92;97.43;154935.28;5071302;28;20964;-74
2021/09/05 04:53:18;;;;;;;12.57;11.27;;;;;;;13.91;97.68;154933.97;5072073;28;20578;-75
2021/09/05 04:56:04;;;;;;;14.33;12.53;;;;;;;13.89;97.58;154928.81;5072330;28;20560;-75
2021/09/05 04:58:51;;;;;;;12.83;11.40;;;;;;;13.92;98.29;154935.28;5071804;28;20441;-76
2021/09/05 05:01:36;;;;;;;12.73;11.43;;;;;;;13.92;98.54;154935.28;5071771;28;20873;-74
2021/09/05 05:04:21;;;;;;;13.57;11.70;;;;;;;13.93;99.03;154937.84;5072170;28;20449;-74
2021/09/05 05:07:07;;;;;;;13.40;12.10;;;;;;;13.92;99.10;154935.28;5060335;28;20457;-74
2021/09/05 05:09:55;;;;;;;11.60;10.40;;;;;;;13.95;99.19;154944.34;5074679;28;20577;-75
2021/09/05 05:12:40;;;;;;;13.17;11.07;;;;;;;14.02;98.87;154961.25;5075340;28;20516;-75
2021/09/05 05:15:27;;;;;;;13.43;12.03;;;;;;;14.04;98.89;154966.41;5075434;28;20596;-74
2021/09/05 05:18:12;;;;;;;13.10;11.80;;;;;;;14.08;98.81;154975.53;5075330;28;20483;-75
2021/09/05 05:20:59;;;;;;;14.40;12.40;;;;;;;14.16;98.38;154997.59;5056327;28;20500;-75
2021/09/05 05:23:44;;;;;;;14.17;11.43;;;;;;;14.19;98.14;155005.34;5066202;28;20437;-75
2021/09/05 05:26:30;;;;;;;12.13;10.10;;;;;;;14.22;97.95;155013.16;5074878;28;20469;-75
2021/09/05 05:29:15;;;;;;;14.97;12.30;;;;;;;14.24;97.99;155018.38;5062038;28;21102;-74
2021/09/05 05:32:02;;;;;;;13.90;12.03;;;;;;;14.35;98.82;155045.72;5074853;28;20911;-75
2021/09/05 05:34:47;;;;;;;12.20;10.90;;;;;;;14.37;99.22;155050.88;5073686;28;20457;-75
2021/09/05 05:37:33;;;;;;;13.80;11.90;;;;;;;14.37;98.91;155050.88;5074917;28;20532;-75
2021/09/05 05:40:35;;;;;;;12.03;10.73;;;;;;;14.40;98.60;155059.94;5030552;28;20819;-75
2021/09/05 05:43:20;;;;;;;14.03;11.10;;;;;;;14.47;98.42;155078.16;5013060;28;20572;-74
2021/09/05 05:46:05;;;;;;;13.10;10.97;;;;;;;14.55;98.27;155098.94;5023045;28;20459;-74
2021/09/05 05:48:53;;;;;;;12.30;11.00;;;;;;;14.60;98.26;155111.94;5031022;28;20459;-75
2021/09/05 05:51:38;;;;;;;12.60;11.30;;;;;;;14.68;97.92;155130.09;5031314;28;20942;-75
2021/09/05 05:54:23;;;;;;;11.30;10.20;;;;;;;14.86;98.04;155176.84;5031060;28;20488;-75
2021/09/05 05:57:09;;;;;;;12.20;10.90;;;;;;;15.08;97.29;155234.03;5025124;28;20456;-75
2021/09/05 05:59:54;;;;;;;11.37;10.17;;;;;;;15.32;96.61;155296.41;5006613;28;20458;-74
2021/09/05 06:02:39;;;;;;;13.07;10.50;;;;;;;15.59;96.25;155366.66;5013342;28;20578;-74
2021/09/05 06:05:26;;;;;;;11.97;10.47;;;;;;;15.88;94.73;155439.44;5001641;28;20458;-75
2021/09/05 06:08:12;;;;;;;11.20;10.10;;;;;;;16.20;93.23;155522.66;5012210;28;20449;-74
2021/09/05 06:10:57;;;;;;;11.30;10.07;;;;;;;16.51;91.35;155603.28;5015765;28;20917;-74
2021/09/05 06:13:42;;;;;;;11.07;10.00;;;;;;;16.80;90.67;155678.78;5032805;28;20981;-75
2021/09/05 06:16:28;;;;;;;10.17;9.07;;;;;;;16.90;88.82;155704.81;5074659;28;20487;-74
2021/09/05 06:19:14;;;;;;;10.97;9.77;;;;;;;17.07;88.37;155746.44;5073409;28;20448;-75
2021/09/05 06:22:01;;;;;;;11.00;9.90;;;;;;;17.29;87.69;155803.72;5074171;28;20453;-75
2021/09/05 06:24:46;;;;;;;11.90;10.47;;;;;;;17.52;86.96;155864.91;5053742;28;20800;-75
2021/09/05 06:27:31;;;;;;;10.53;9.30;;;;;;;17.73;85.79;155917.00;5070982;28;20450;-75
2021/09/05 06:30:17;;;;;;;11.83;10.40;;;;;;;17.85;84.32;155949.53;5073029;28;20536;-75
2021/09/05 06:33:02;;;;;;;11.67;10.30;;;;;;;18.00;83.03;155987.31;5054265;28;20410;-75
2021/09/05 06:35:47;;;;;;;10.53;9.53;;;;;;;18.13;82.09;156022.50;5056792;28;20833;-75
2021/09/05 06:38:34;;;;;;;12.00;10.13;;;;;;;18.40;81.50;156090.22;5073526;28;20411;-75
2021/09/05 06:41:20;;;;;;;11.50;9.83;;;;;;;18.59;79.36;156139.72;5073684;28;20491;-76
2021/09/05 06:44:05;;;;;;;10.00;9.00;;;;;;;18.81;78.61;156197.06;5072672;28;20417;-75
2021/09/05 06:46:41;;;;;;;11.13;9.20;;;;;;;18.97;77.66;156237.44;5068930;28;20836;-74
2021/09/05 06:49:26;;;;;;;10.60;9.00;;;;;;;19.07;76.57;156264.81;5073716;28;20446;-74
2021/09/05 06:52:11;;;;;;;9.27;8.37;;;;;;;19.36;75.92;156340.41;5061158;28;20437;-74
2021/09/05 06:54:58;;;;;;;10.77;9.30;;;;;;;19.74;74.85;156436.91;5053488;28;20447;-74
2021/09/05 06:57:43;;;;;;;9.77;8.63;;;;;;;20.01;74.34;156508.59;5070472;28;20437;-74
2021/09/05 07:00:29;;;;;;;9.00;8.20;;;;;;;20.14;70.95;156539.94;5073675;28;20802;-73
2021/09/05 07:03:14;;;;;;;9.50;8.60;;;;;;;20.38;70.40;156603.91;5073632;28;20432;-74
2021/09/05 07:05:59;;;;;;;9.53;8.57;;;;;;;20.61;68.76;156662.59;5074068;28;20462;-74
2021/09/05 07:08:45;;;;;;;8.87;8.07;;;;;;;20.60;67.14;156661.28;5073731;28;20924;-73
2021/09/05 07:11:32;;;;;;;9.47;8.53;;;;;;;20.70;68.38;156684.78;5072353;28;20465;-74
2021/09/05 07:14:17;;;;;;;8.40;7.60;;;;;;;20.90;67.56;156736.94;5073392;28;20457;-74
2021/09/05 07:17:03;;;;;;;9.20;8.37;;;;;;;21.10;66.49;156789.22;5073739;28;20450;-74
2021/09/05 07:19:48;;;;;;;8.47;7.67;;;;;;;21.31;66.67;156842.72;5073708;28;20437;-74
2021/09/05 07:22:33;;;;;;;9.80;8.57;;;;;;;21.49;64.11;156891.03;5070396;28;20456;-74
2021/09/05 07:25:20;;;;;;;8.60;7.80;;;;;;;21.77;63.12;156962.78;5053373;28;20504;-74
2021/09/05 07:28:07;;;;;;;9.33;8.43;;;;;;;21.80;63.97;156971.94;5053647;28;20422;-73
2021/09/05 07:30:52;;;;;;;9.10;8.20;;;;;;;21.95;62.65;157009.84;5055398;28;20477;-74
2021/09/05 07:33:38;;;;;;;8.87;7.63;;;;;;;22.18;62.19;157068.63;5072270;28;20523;-74
2021/09/05 07:36:23;;;;;;;10.63;9.23;;;;;;;22.50;61.41;157152.22;5072073;28;20488;-74
2021/09/05 07:39:09;;;;;;;9.03;8.13;;;;;;;22.73;59.49;157212.34;5072895;28;20516;-74
2021/09/05 07:41:54;;;;;;;8.43;7.63;;;;;;;22.74;59.33;157213.69;5073242;28;20520;-74
2021/09/05 07:44:41;;;;;;;8.63;7.83;;;;;;;22.80;59.30;157230.63;5073293;28;20449;-74
2021/09/05 07:47:26;;;;;;;8.70;7.90;;;;;;;23.08;58.34;157302.53;5072569;28;20603;-74
2021/09/05 07:50:12;;;;;;;9.23;8.33;;;;;;;23.07;57.25;157299.88;5072925;28;20968;-74
2021/09/05 07:52:57;;;;;;;8.07;7.27;;;;;;;23.32;57.88;157365.25;5073153;28;20896;-75
2021/09/05 07:55:43;;;;;;;8.57;7.77;;;;;;;23.56;57.66;157426.75;5073179;28;20483;-74
2021/09/05 07:58:28;;;;;;;8.10;7.40;;;;;;;23.71;56.90;157464.63;5072550;28;20445;-74
2021/09/05 08:01:28;;;;;;;9.83;8.90;;;;;;;23.79;56.44;157485.53;5037611;28;20443;-74
2021/09/05 08:04:14;;;;;;;8.10;7.40;;;;;;;23.98;55.44;157535.25;5044368;28;20986;-74
2021/09/05 08:06:59;;;;;;;9.63;8.63;;;;;;;23.95;55.13;157528.69;5038359;28;20459;-74
2021/09/05 08:09:45;;;;;;;8.57;7.77;;;;;;;24.03;55.28;157548.31;5029784;28;20494;-74
2021/09/05 08:12:30;;;;;;;8.80;7.90;;;;;;;23.96;54.84;157530.03;5045621;28;20733;-74
2021/09/05 08:15:15;;;;;;;8.93;8.13;;;;;;;24.31;55.54;157620.25;5050097;28;20441;-75
2021/09/05 08:18:02;;;;;;;8.50;7.70;;;;;;;24.30;53.88;157619.00;5049923;28;20904;-74
2021/09/05 08:20:47;;;;;;;9.10;8.20;;;;;;;24.35;53.82;157630.75;5049407;28;20442;-74
2021/09/05 08:23:33;;;;;;;9.37;8.47;;;;;;;24.34;54.34;157628.13;5040958;28;20577;-74
2021/09/05 08:26:19;;;;;;;9.20;8.40;;;;;;;24.71;55.26;157724.91;5032579;28;20521;-74
2021/09/05 08:29:06;;;;;;;8.03;7.33;;;;;;;24.76;53.86;157737.97;5045704;28;20857;-74
2021/09/05 08:31:51;;;;;;;9.20;8.40;;;;;;;24.66;53.59;157711.84;5050065;28;20469;-74
2021/09/05 08:34:37;;;;;;;8.33;7.63;;;;;;;24.59;53.04;157693.53;5042635;28;20490;-74
2021/09/05 08:37:22;;;;;;;8.23;7.43;;;;;;;24.82;52.66;157753.75;5048333;28;20793;-74
2021/09/05 08:40:09;;;;;;;9.33;7.13;;;;;;;24.78;53.13;157744.56;5055019;28;20581;-74
2021/09/05 08:42:54;;;;;;;7.73;6.93;;;;;;;24.87;53.02;157765.50;5067419;28;20958;-74
2021/09/05 08:45:40;;;;;;;8.70;7.80;;;;;;;24.80;52.22;157748.53;5067865;28;20452;-74
2021/09/05 08:48:25;;;;;;;7.93;7.23;;;;;;;24.52;53.56;157675.19;5076399;28;20449;-74
2021/09/05 08:51:13;;;;;;;8.00;7.20;;;;;;;24.44;54.07;157655.56;5075196;28;20485;-74
2021/09/05 08:53:59;;;;;;;9.53;8.70;;;;;;;24.46;53.27;157659.53;5076255;28;21119;-74
2021/09/05 08:56:44;;;;;;;8.40;7.60;;;;;;;24.51;54.03;157672.59;5075172;28;20801;-74
2021/09/05 08:59:30;;;;;;;8.13;7.43;;;;;;;24.40;54.24;157645.13;5056884;28;20496;-74
2021/09/05 09:02:15;;;;;;;8.90;8.10;;;;;;;24.45;54.63;157658.22;5074397;28;20479;-74
2021/09/05 09:05:00;;;;;;;7.43;6.73;;;;;;;24.47;53.72;157662.13;5074899;28;20464;-74
2021/09/05 09:07:48;;;;;;;8.43;7.63;;;;;;;24.14;54.80;157577.13;5074642;28;20887;-74
2021/09/05 09:10:34;;;;;;;7.73;7.03;;;;;;;24.02;56.20;157547.00;5059651;28;20819;-74
2021/09/05 09:13:30;;;;;;;8.83;8.00;;;;;;;23.88;55.97;157510.38;5075105;28;20417;-74
2021/09/05 09:16:15;;;;;;;7.97;7.23;;;;;;;23.95;55.79;157528.69;5075424;28;20445;-75
2021/09/05 09:19:01;;;;;;;8.03;7.23;;;;;;;24.20;55.70;157594.09;5075769;28;20445;-74
2021/09/05 09:21:46;;;;;;;10.33;7.37;;;;;;;24.05;54.45;157553.53;5075352;28;20997;-77
2021/09/05 09:24:42;;;;;;;7.80;7.00;;;;;;;23.98;55.63;157536.56;5072377;28;20480;-75
2021/09/05 09:27:27;;;;;;;8.50;7.33;;;;;;;23.85;54.07;157502.56;5064230;28;20450;-75
2021/09/05 09:30:16;;;;;;;7.20;6.60;;;;;;;23.79;56.21;157486.88;5072590;28;20469;-74
2021/09/05 09:33:01;;;;;;;7.10;6.50;;;;;;;24.09;56.35;157564.06;5074221;28;20568;-75
2021/09/05 09:35:52;;;;;;;7.70;7.00;;;;;;;23.95;55.90;157527.38;5075672;28;20584;-75
2021/09/05 09:38:37;;;;;;;7.37;6.67;;;;;;;23.94;54.86;157526.06;5073108;28;20457;-75
2021/09/05 09:41:28;;;;;;;8.00;7.30;;;;;;;23.81;56.06;157490.75;5075335;28;20564;-75
2021/09/05 09:44:15;;;;;;;7.67;6.97;;;;;;;23.52;56.73;157416.25;5066220;28;20521;-74
2021/09/05 09:47:12;;;;;;;9.40;7.73;;;;;;;23.39;56.31;157382.28;5067634;28;20792;-76
2021/09/05 09:50:02;;;;;;;7.07;6.37;;;;;;;23.38;57.76;157379.63;5075632;28;20445;-75
2021/09/05 09:52:47;;;;;;;7.77;7.07;;;;;;;23.55;57.75;157424.09;5071926;28;20571;-75
2021/09/05 09:55:32;;;;;;;7.90;7.10;;;;;;;23.58;56.05;157431.97;5067597;28;21019;-75
2021/09/05 09:58:19;;;;;;;7.03;6.40;;;;;;;23.49;56.35;157409.72;5069908;28;20852;-75
2021/09/05 10:01:05;;;;;;;7.10;6.50;;;;;;;23.63;55.64;157445.03;5067791;28;20503;-75
2021/09/05 10:03:52;;;;;;;6.70;6.10;;;;;;;23.67;55.65;157454.19;5069655;28;20454;-75
2021/09/05 10:06:38;;;;;;;7.57;6.97;;;;;;;23.70;55.66;157462.00;5072626;28;20505;-75
2021/09/05 10:09:23;;;;;;;6.33;5.73;;;;;;;23.88;54.98;157509.09;5073293;28;20477;-75
2021/09/05 10:12:09;;;;;;;7.00;6.30;;;;;;;23.85;54.72;157502.56;5069732;28;20538;-76
2021/09/05 10:14:59;;;;;;;6.97;6.27;;;;;;;23.81;53.25;157492.06;5073815;28;20441;-76
2021/09/05 10:17:45;;;;;;;7.50;6.23;;;;;;;23.83;54.84;157496.03;5072430;28;20500;-75
2021/09/05 10:20:30;;;;;;;7.77;7.17;;;;;;;23.70;52.75;157462.00;5068616;28;20458;-75
2021/09/05 10:23:25;;;;;;;6.43;5.83;;;;;;;23.70;53.44;157463.31;5054800;28;20922;-75
2021/09/05 10:26:11;;;;;;;5.73;5.30;;;;;;;23.93;55.06;157523.47;5076184;28;20497;-75
2021/09/05 10:28:58;;;;;;;6.30;5.70;;;;;;;24.25;52.85;157605.91;5060832;28;20458;-75
2021/09/05 10:31:45;;;;;;;6.20;5.70;;;;;;;24.43;51.07;157653.00;5061975;28;20466;-75
2021/09/05 10:34:33;;;;;;;6.80;6.20;;;;;;;24.37;51.22;157637.28;5073486;28;20956;-75
2021/09/05 10:37:18;;;;;;;6.33;5.70;;;;;;;24.05;51.27;157554.84;5068703;28;20434;-75
2021/09/05 10:40:08;;;;;;;5.60;5.10;;;;;;;24.11;51.25;157570.59;5069206;28;20488;-75
2021/09/05 10:42:54;;;;;;;6.70;6.10;;;;;;;24.14;51.74;157578.47;5073883;28;20919;-76
2021/09/05 10:45:41;;;;;;;7.13;6.43;;;;;;;23.95;51.82;157528.69;5067746;28;20470;-75
2021/09/05 10:48:35;;;;;;;6.77;6.17;;;;;;;24.07;50.40;157560.06;5053975;28;20415;-75
2021/09/05 10:51:23;;;;;;;6.80;6.20;;;;;;;24.06;51.80;157557.47;5067372;28;20473;-75
2021/09/05 10:54:10;;;;;;;6.97;5.73;;;;;;;24.07;50.47;157560.06;5072937;28;20457;-75
2021/09/05 10:56:57;;;;;;;6.43;5.87;;;;;;;23.99;51.86;157537.81;5065069;28;20477;-75
2021/09/05 10:59:42;;;;;;;6.67;6.07;;;;;;;23.71;51.62;157465.94;5053206;28;20545;-75
2021/09/05 11:02:27;;;;;;;6.13;5.63;;;;;;;23.86;51.45;157503.84;5069426;28;20922;-75
2021/09/05 11:05:18;;;;;;;6.37;5.77;;;;;;;23.72;51.94;157468.56;5068928;28;20462;-75
2021/09/05 11:08:24;;;;;;;6.57;5.97;;;;;;;23.91;51.92;157516.91;5053414;28;20405;-75
2021/09/05 11:11:11;;;;;;;6.03;5.43;;;;;;;23.71;50.07;157464.63;5062940;28;20612;-75
2021/09/05 11:13:57;;;;;;;6.37;5.77;;;;;;;23.79;50.29;157486.88;5067124;28;20454;-75
2021/09/05 11:16:39;;;;;;;6.30;5.70;;;;;;;23.95;50.26;157528.69;5063138;28;20434;-75
2021/09/05 11:19:20;;;;;;;5.10;4.70;;;;;;;23.95;47.93;157527.38;5082542;28;20484;-75
2021/09/05 11:21:57;;;;;;;5.47;4.97;;;;;;;23.83;48.58;157497.28;5071639;28;20434;-75
2021/09/05 11:24:34;;;;;;;5.80;5.30;;;;;;;23.74;48.98;157472.47;5066939;28;20473;-75
2021/09/05 11:27:11;;;;;;;5.90;5.40;;;;;;;23.83;49.07;157496.03;5064320;28;20525;-75
2021/09/05 11:29:46;;;;;;;6.33;5.73;;;;;;;23.77;48.74;157481.66;5069196;28;20450;-75
2021/09/05 11:32:23;;;;;;;5.67;5.17;;;;;;;23.64;48.79;157447.66;5067647;28;20957;-74
2021/09/05 11:34:59;;;;;;;5.60;4.90;;;;;;;23.80;46.77;157489.44;5057135;28;20443;-75
2021/09/05 11:37:38;;;;;;;5.73;5.00;;;;;;;23.74;46.70;157472.47;5061662;28;20455;-75
2021/09/05 11:40:29;;;;;;;4.87;4.47;;;;;;;23.75;46.57;157476.38;5069998;28;20468;-75
2021/09/05 11:43:06;;;;;;;4.30;3.90;;;;;;;23.86;47.15;157505.16;5078583;28;20537;-75
2021/09/05 11:45:43;;;;;;;5.70;5.13;;;;;;;23.91;46.12;157516.91;5066114;28;20831;-75
2021/09/05 11:48:19;;;;;;;5.43;5.03;;;;;;;23.99;46.62;157539.13;5069083;28;20422;-75
2021/09/05 11:51:01;;;;;;;4.90;4.50;;;;;;;23.94;46.79;157526.06;5074270;28;20446;-75
2021/09/05 11:53:38;;;;;;;4.70;4.30;;;;;;;23.88;45.68;157510.38;5067944;28;20442;-75
2021/09/05 11:56:16;;;;;;;5.50;4.97;;;;;;;24.02;47.42;157547.00;5072090;28;20421;-75
2021/09/05 11:58:52;;;;;;;5.00;4.50;;;;;;;24.00;45.65;157541.78;5070778;28;20442;-74
2021/09/05 12:01:29;;;;;;;4.57;4.17;;;;;;;24.16;46.76;157583.69;5070803;28;20804;-75
2021/09/05 12:04:06;;;;;;;5.43;4.93;;;;;;;24.14;47.09;157577.13;5063585;28;20455;-75
2021/09/05 12:06:42;;;;;;;5.70;4.80;;;;;;;24.33;44.67;157625.53;5067722;28;20762;-75
2021/09/05 12:09:28;;;;;;;5.50;5.00;;;;;;;24.26;46.61;157607.19;5071071;28;20450;-75
2021/09/05 12:12:05;;;;;;;5.93;4.97;;;;;;;24.25;45.60;157604.59;5069474;28;20556;-75
2021/09/05 12:14:42;;;;;;;5.87;4.70;;;;;;;24.36;43.34;157633.38;5070819;28;20493;-75
2021/09/05 12:17:19;;;;;;;5.20;4.73;;;;;;;24.32;43.82;157624.22;5072027;28;20406;-75
2021/09/05 12:19:57;;;;;;;5.63;5.07;;;;;;;24.17;44.29;157585.00;5071421;28;20446;-75
2021/09/05 12:22:46;;;;;;;5.70;4.97;;;;;;;24.10;44.65;157567.97;5067421;28;20431;-75
2021/09/05 12:25:26;;;;;;;5.37;4.80;;;;;;;24.10;45.32;157567.97;5052900;28;20507;-74
2021/09/05 12:28:05;;;;;;;5.70;5.10;;;;;;;24.23;46.63;157601.97;5050951;28;20439;-74
2021/09/05 12:30:49;;;;;;;5.27;4.77;;;;;;;24.16;43.92;157583.69;5050799;28;20478;-74
2021/09/05 12:33:35;;;;;;;6.20;5.60;;;;;;;24.15;43.02;157581.03;5067271;28;20910;-75
2021/09/05 12:36:18;;;;;;;5.73;5.13;;;;;;;24.22;44.70;157599.31;5070105;28;20856;-75
2021/09/05 12:38:57;;;;;;;5.80;5.20;;;;;;;24.48;44.98;157664.75;5069723;28;20447;-75
2021/09/05 12:41:35;;;;;;;5.13;4.73;;;;;;;24.51;45.11;157673.94;5072002;28;20411;-74
2021/09/05 12:44:11;;;;;;;5.10;4.60;;;;;;;24.37;45.42;157635.97;5058497;28;20435;-75
2021/09/05 12:46:48;;;;;;;5.47;4.97;;;;;;;24.35;45.33;157630.75;5070547;28;20930;-75
2021/09/05 12:49:26;;;;;;;5.73;5.17;;;;;;;24.57;45.52;157688.31;5070261;28;20448;-74
2021/09/05 12:52:04;;;;;;;5.50;5.00;;;;;;;24.63;44.02;157703.97;5072208;28;20453;-75
2021/09/05 12:54:39;;;;;;;5.60;5.10;;;;;;;24.37;43.81;157637.28;5057699;28;20458;-75
2021/09/05 12:57:19;;;;;;;5.73;4.60;;;;;;;24.23;43.64;157601.97;5055228;28;20419;-75
2021/09/05 12:59:55;;;;;;;5.80;5.30;;;;;;;24.58;43.93;157690.91;5051328;28;20541;-75